sensor_id;sensor_type;location;lat;lon;timestamp;temperature;humidity
29501;DHT22;16450;50.288;10.966;2023-11-21T00:01:51;7.50;99.90
29501;DHT22;16450;50.288;10.966;2023-11-21T00:04:53;7.50;99.90
29501;DHT22;16450;50.288;10.966;2023-11-21T00:07:56;7.50;99.90
29501;DHT22;16450;50.288;10.966;2023-11-21T00:10:58;7.50;99.90
29501;DHT22;16450;50.288;10.966;2023-11-21T00:14:02;7.50;99.90
29501;DHT22;16450;50.288;10.966;2023-11-21T00:17:05;7.50;99.90
29501;DHT22;16450;50.288;10.966;2023-11-21T00:20:07;7.50;99.90
29501;DHT22;16450;50.288;10.966;2023-11-21T00:23:09;7.50;99.90
29501;DHT22;16450;50.288;10.966;2023-11-21T00:26:11;7.50;99.90
29501;DHT22;16450;50.288;10.966;2023-11-21T00:29:13;7.50;99.90
29501;DHT22;16450;50.288;10.966;2023-11-21T00:32:15;7.50;99.90
29501;DHT22;16450;50.288;10.966;2023-11-21T00:35:17;7.50;99.90
29501;DHT22;16450;50.288;10.966;2023-11-21T00:38:19;7.50;99.90
29501;DHT22;16450;50.288;10.966;2023-11-21T00:41:21;7.50;99.90
29501;DHT22;16450;50.288;10.966;2023-11-21T00:44:23;7.50;99.90
29501;DHT22;16450;50.288;10.966;2023-11-21T00:47:25;7.40;99.90
29501;DHT22;16450;50.288;10.966;2023-11-21T00:50:27;7.50;99.90
29501;DHT22;16450;50.288;10.966;2023-11-21T00:53:29;7.40;99.90
29501;DHT22;16450;50.288;10.966;2023-11-21T00:56:31;7.50;99.90
29501;DHT22;16450;50.288;10.966;2023-11-21T00:59:33;7.50;99.90
29501;DHT22;16450;50.288;10.966;2023-11-21T01:02:35;7.50;99.90
29501;DHT22;16450;50.288;10.966;2023-11-21T01:05:37;7.50;99.90
29501;DHT22;16450;50.288;10.966;2023-11-21T01:08:39;7.50;99.90
29501;DHT22;16450;50.288;10.966;2023-11-21T01:11:41;7.40;99.90
29501;DHT22;16450;50.288;10.966;2023-11-21T01:14:43;7.40;99.90
29501;DHT22;16450;50.288;10.966;2023-11-21T01:17:45;7.50;99.90
29501;DHT22;16450;50.288;10.966;2023-11-21T01:20:47;7.40;99.90
29501;DHT22;16450;50.288;10.966;2023-11-21T01:23:48;7.40;99.90
29501;DHT22;16450;50.288;10.966;2023-11-21T01:26:51;7.40;99.90
29501;DHT22;16450;50.288;10.966;2023-11-21T01:29:53;7.40;99.90
29501;DHT22;16450;50.288;10.966;2023-11-21T01:32:55;7.40;99.90
29501;DHT22;16450;50.288;10.966;2023-11-21T01:35:58;7.40;99.90
29501;DHT22;16450;50.288;10.966;2023-11-21T01:39:00;7.40;99.90
29501;DHT22;16450;50.288;10.966;2023-11-21T01:42:03;7.40;99.90
29501;DHT22;16450;50.288;10.966;2023-11-21T01:45:05;7.40;99.90
29501;DHT22;16450;50.288;10.966;2023-11-21T01:48:08;7.40;99.90
29501;DHT22;16450;50.288;10.966;2023-11-21T01:51:10;7.40;99.90
29501;DHT22;16450;50.288;10.966;2023-11-21T01:54:12;7.40;99.90
29501;DHT22;16450;50.288;10.966;2023-11-21T01:57:19;7.40;99.90
29501;DHT22;16450;50.288;10.966;2023-11-21T02:00:22;7.40;99.90
29501;DHT22;16450;50.288;10.966;2023-11-21T02:03:25;7.40;99.90
29501;DHT22;16450;50.288;10.966;2023-11-21T02:06:28;7.40;99.90
29501;DHT22;16450;50.288;10.966;2023-11-21T02:09:33;7.40;99.90
29501;DHT22;16450;50.288;10.966;2023-11-21T02:12:35;7.40;99.90
29501;DHT22;16450;50.288;10.966;2023-11-21T02:15:38;7.40;99.90
29501;DHT22;16450;50.288;10.966;2023-11-21T02:18:40;7.40;99.90
29501;DHT22;16450;50.288;10.966;2023-11-21T02:21:44;7.40;99.90
29501;DHT22;16450;50.288;10.966;2023-11-21T02:24:46;7.50;99.90
29501;DHT22;16450;50.288;10.966;2023-11-21T02:27:48;7.40;99.90
29501;DHT22;16450;50.288;10.966;2023-11-21T02:30:50;7.40;99.90
29501;DHT22;16450;50.288;10.966;2023-11-21T02:33:57;7.50;99.90
29501;DHT22;16450;50.288;10.966;2023-11-21T02:36:59;7.50;99.90
29501;DHT22;16450;50.288;10.966;2023-11-21T02:40:01;7.40;99.90
29501;DHT22;16450;50.288;10.966;2023-11-21T02:43:08;7.50;99.90
29501;DHT22;16450;50.288;10.966;2023-11-21T02:46:11;7.50;99.90
29501;DHT22;16450;50.288;10.966;2023-11-21T02:49:12;7.50;99.90
29501;DHT22;16450;50.288;10.966;2023-11-21T02:52:14;7.50;99.90
29501;DHT22;16450;50.288;10.966;2023-11-21T02:55:16;7.50;99.90
29501;DHT22;16450;50.288;10.966;2023-11-21T02:58:18;7.50;99.90
29501;DHT22;16450;50.288;10.966;2023-11-21T03:01:20;7.50;99.90
29501;DHT22;16450;50.288;10.966;2023-11-21T03:04:22;7.50;99.90
29501;DHT22;16450;50.288;10.966;2023-11-21T03:07:24;7.50;99.90
29501;DHT22;16450;50.288;10.966;2023-11-21T03:10:26;7.50;99.90
29501;DHT22;16450;50.288;10.966;2023-11-21T03:13:29;7.50;99.90
29501;DHT22;16450;50.288;10.966;2023-11-21T03:16:34;7.50;99.90
29501;DHT22;16450;50.288;10.966;2023-11-21T03:19:36;7.50;99.90
29501;DHT22;16450;50.288;10.966;2023-11-21T03:22:38;7.50;99.90
29501;DHT22;16450;50.288;10.966;2023-11-21T03:25:40;7.40;99.90
29501;DHT22;16450;50.288;10.966;2023-11-21T03:28:42;7.40;99.90
29501;DHT22;16450;50.288;10.966;2023-11-21T03:31:44;7.50;99.90
29501;DHT22;16450;50.288;10.966;2023-11-21T03:34:57;7.50;99.90
29501;DHT22;16450;50.288;10.966;2023-11-21T03:38:00;7.40;99.90
29501;DHT22;16450;50.288;10.966;2023-11-21T03:41:02;7.50;99.90
29501;DHT22;16450;50.288;10.966;2023-11-21T03:44:04;7.50;99.90
29501;DHT22;16450;50.288;10.966;2023-11-21T03:47:06;7.50;99.90
29501;DHT22;16450;50.288;10.966;2023-11-21T03:50:08;7.50;99.90
29501;DHT22;16450;50.288;10.966;2023-11-21T03:53:10;7.50;99.90
29501;DHT22;16450;50.288;10.966;2023-11-21T03:56:13;7.50;99.90
29501;DHT22;16450;50.288;10.966;2023-11-21T03:59:15;7.50;99.90
29501;DHT22;16450;50.288;10.966;2023-11-21T04:02:17;7.50;99.90
29501;DHT22;16450;50.288;10.966;2023-11-21T04:05:20;7.60;99.90
29501;DHT22;16450;50.288;10.966;2023-11-21T04:08:23;7.50;99.90
29501;DHT22;16450;50.288;10.966;2023-11-21T04:11:27;7.60;99.90
29501;DHT22;16450;50.288;10.966;2023-11-21T04:14:31;7.50;99.90
29501;DHT22;16450;50.288;10.966;2023-11-21T04:17:34;7.50;99.90
29501;DHT22;16450;50.288;10.966;2023-11-21T04:20:36;7.50;99.90
29501;DHT22;16450;50.288;10.966;2023-11-21T04:23:37;7.50;99.90
29501;DHT22;16450;50.288;10.966;2023-11-21T04:26:41;7.50;99.90
29501;DHT22;16450;50.288;10.966;2023-11-21T04:29:43;7.50;99.90
29501;DHT22;16450;50.288;10.966;2023-11-21T04:32:45;7.50;99.90
29501;DHT22;16450;50.288;10.966;2023-11-21T04:35:47;7.50;99.90
29501;DHT22;16450;50.288;10.966;2023-11-21T04:38:50;7.60;99.90
29501;DHT22;16450;50.288;10.966;2023-11-21T04:41:51;7.50;99.90
29501;DHT22;16450;50.288;10.966;2023-11-21T04:44:53;7.50;99.90
29501;DHT22;16450;50.288;10.966;2023-11-21T04:47:56;7.60;99.90
29501;DHT22;16450;50.288;10.966;2023-11-21T04:50:58;7.50;99.90
29501;DHT22;16450;50.288;10.966;2023-11-21T04:54:00;7.50;99.90
29501;DHT22;16450;50.288;10.966;2023-11-21T04:57:02;7.50;99.90
29501;DHT22;16450;50.288;10.966;2023-11-21T05:00:05;7.50;99.90
29501;DHT22;16450;50.288;10.966;2023-11-21T05:03:08;7.50;99.90
29501;DHT22;16450;50.288;10.966;2023-11-21T05:06:10;7.50;99.90
29501;DHT22;16450;50.288;10.966;2023-11-21T05:09:12;7.50;99.90
29501;DHT22;16450;50.288;10.966;2023-11-21T05:12:14;7.50;99.90
29501;DHT22;16450;50.288;10.966;2023-11-21T05:15:16;7.50;99.90
29501;DHT22;16450;50.288;10.966;2023-11-21T05:18:19;7.50;99.90
29501;DHT22;16450;50.288;10.966;2023-11-21T05:21:21;7.50;99.90
29501;DHT22;16450;50.288;10.966;2023-11-21T05:24:22;7.40;99.90
29501;DHT22;16450;50.288;10.966;2023-11-21T05:27:24;7.50;99.90
29501;DHT22;16450;50.288;10.966;2023-11-21T05:30:26;7.40;99.90
29501;DHT22;16450;50.288;10.966;2023-11-21T05:33:28;7.40;99.90
29501;DHT22;16450;50.288;10.966;2023-11-21T05:36:30;7.40;99.90
29501;DHT22;16450;50.288;10.966;2023-11-21T05:39:32;7.40;99.90
29501;DHT22;16450;50.288;10.966;2023-11-21T05:42:35;7.40;99.90
29501;DHT22;16450;50.288;10.966;2023-11-21T05:45:40;7.40;99.90
29501;DHT22;16450;50.288;10.966;2023-11-21T05:48:43;7.40;99.90
29501;DHT22;16450;50.288;10.966;2023-11-21T05:51:45;7.30;99.90
29501;DHT22;16450;50.288;10.966;2023-11-21T05:54:47;7.30;99.90
29501;DHT22;16450;50.288;10.966;2023-11-21T05:57:49;7.30;99.90
29501;DHT22;16450;50.288;10.966;2023-11-21T06:00:51;7.30;99.90
29501;DHT22;16450;50.288;10.966;2023-11-21T06:03:54;7.30;99.90
29501;DHT22;16450;50.288;10.966;2023-11-21T06:06:56;7.20;99.90
29501;DHT22;16450;50.288;10.966;2023-11-21T06:09:58;7.30;99.90
29501;DHT22;16450;50.288;10.966;2023-11-21T06:13:01;7.20;99.90
29501;DHT22;16450;50.288;10.966;2023-11-21T06:16:05;7.20;99.90
29501;DHT22;16450;50.288;10.966;2023-11-21T06:19:07;7.20;99.90
29501;DHT22;16450;50.288;10.966;2023-11-21T06:22:09;7.20;99.90
29501;DHT22;16450;50.288;10.966;2023-11-21T06:25:13;7.20;99.90
29501;DHT22;16450;50.288;10.966;2023-11-21T06:28:15;7.20;99.90
29501;DHT22;16450;50.288;10.966;2023-11-21T06:31:20;7.20;99.90
29501;DHT22;16450;50.288;10.966;2023-11-21T06:34:23;7.20;99.90
29501;DHT22;16450;50.288;10.966;2023-11-21T06:37:29;7.20;99.90
29501;DHT22;16450;50.288;10.966;2023-11-21T06:40:31;7.20;99.90
29501;DHT22;16450;50.288;10.966;2023-11-21T06:43:35;7.20;99.90
29501;DHT22;16450;50.288;10.966;2023-11-21T06:46:37;7.20;99.90
29501;DHT22;16450;50.288;10.966;2023-11-21T06:49:44;7.20;99.90
29501;DHT22;16450;50.288;10.966;2023-11-21T06:52:46;7.20;99.90
29501;DHT22;16450;50.288;10.966;2023-11-21T06:55:48;7.20;99.90
29501;DHT22;16450;50.288;10.966;2023-11-21T06:58:51;7.20;99.90
29501;DHT22;16450;50.288;10.966;2023-11-21T07:01:57;7.20;99.90
29501;DHT22;16450;50.288;10.966;2023-11-21T07:05:01;7.20;99.90
29501;DHT22;16450;50.288;10.966;2023-11-21T07:08:06;7.10;99.90
29501;DHT22;16450;50.288;10.966;2023-11-21T07:11:10;7.20;99.90
29501;DHT22;16450;50.288;10.966;2023-11-21T07:14:12;7.10;99.90
29501;DHT22;16450;50.288;10.966;2023-11-21T07:17:14;7.10;99.90
29501;DHT22;16450;50.288;10.966;2023-11-21T07:20:16;7.10;99.90
29501;DHT22;16450;50.288;10.966;2023-11-21T07:23:18;7.10;99.90
29501;DHT22;16450;50.288;10.966;2023-11-21T07:26:20;7.10;99.90
29501;DHT22;16450;50.288;10.966;2023-11-21T07:29:23;7.10;99.90
29501;DHT22;16450;50.288;10.966;2023-11-21T07:32:27;7.10;99.90
29501;DHT22;16450;50.288;10.966;2023-11-21T07:35:29;7.20;99.90
29501;DHT22;16450;50.288;10.966;2023-11-21T07:38:30;7.10;99.90
29501;DHT22;16450;50.288;10.966;2023-11-21T07:41:32;7.20;99.90
29501;DHT22;16450;50.288;10.966;2023-11-21T07:44:34;7.20;99.90
29501;DHT22;16450;50.288;10.966;2023-11-21T07:47:37;7.20;99.90
29501;DHT22;16450;50.288;10.966;2023-11-21T07:50:41;7.30;99.90
29501;DHT22;16450;50.288;10.966;2023-11-21T07:53:43;7.30;99.90
29501;DHT22;16450;50.288;10.966;2023-11-21T07:56:45;7.30;99.90
29501;DHT22;16450;50.288;10.966;2023-11-21T07:59:47;7.30;99.90
29501;DHT22;16450;50.288;10.966;2023-11-21T08:02:50;7.30;99.90
29501;DHT22;16450;50.288;10.966;2023-11-21T08:05:52;7.30;99.90
29501;DHT22;16450;50.288;10.966;2023-11-21T08:08:55;7.30;99.90
29501;DHT22;16450;50.288;10.966;2023-11-21T08:11:56;7.30;99.90
29501;DHT22;16450;50.288;10.966;2023-11-21T08:14:58;7.20;99.90
29501;DHT22;16450;50.288;10.966;2023-11-21T08:18:00;7.20;99.90
29501;DHT22;16450;50.288;10.966;2023-11-21T08:21:03;7.10;99.90
29501;DHT22;16450;50.288;10.966;2023-11-21T08:24:07;7.10;99.90
29501;DHT22;16450;50.288;10.966;2023-11-21T08:27:12;7.00;99.90
29501;DHT22;16450;50.288;10.966;2023-11-21T08:30:17;7.00;99.90
29501;DHT22;16450;50.288;10.966;2023-11-21T08:33:21;6.90;99.90
29501;DHT22;16450;50.288;10.966;2023-11-21T08:36:23;6.90;99.90
29501;DHT22;16450;50.288;10.966;2023-11-21T08:39:26;6.90;99.90
29501;DHT22;16450;50.288;10.966;2023-11-21T08:42:28;6.90;99.90
29501;DHT22;16450;50.288;10.966;2023-11-21T08:45:31;6.80;99.90
29501;DHT22;16450;50.288;10.966;2023-11-21T08:48:36;6.90;99.90
29501;DHT22;16450;50.288;10.966;2023-11-21T08:51:38;6.90;99.90
29501;DHT22;16450;50.288;10.966;2023-11-21T08:54:40;7.00;99.90
29501;DHT22;16450;50.288;10.966;2023-11-21T08:57:46;7.00;99.90
29501;DHT22;16450;50.288;10.966;2023-11-21T09:00:50;7.00;99.90
29501;DHT22;16450;50.288;10.966;2023-11-21T09:03:52;7.00;99.90
29501;DHT22;16450;50.288;10.966;2023-11-21T09:06:55;7.00;99.90
29501;DHT22;16450;50.288;10.966;2023-11-21T09:09:57;7.00;99.90
29501;DHT22;16450;50.288;10.966;2023-11-21T09:12:59;7.10;99.90
29501;DHT22;16450;50.288;10.966;2023-11-21T09:16:02;7.20;99.90
29501;DHT22;16450;50.288;10.966;2023-11-21T09:19:04;7.30;99.90
29501;DHT22;16450;50.288;10.966;2023-11-21T09:22:07;7.40;99.90
29501;DHT22;16450;50.288;10.966;2023-11-21T09:25:09;7.70;99.90
29501;DHT22;16450;50.288;10.966;2023-11-21T09:28:12;7.90;99.90
29501;DHT22;16450;50.288;10.966;2023-11-21T09:31:14;8.20;99.90
29501;DHT22;16450;50.288;10.966;2023-11-21T09:34:18;8.40;99.90
29501;DHT22;16450;50.288;10.966;2023-11-21T09:37:20;8.70;99.90
29501;DHT22;16450;50.288;10.966;2023-11-21T09:40:22;9.00;99.90
29501;DHT22;16450;50.288;10.966;2023-11-21T09:43:25;9.20;99.90
29501;DHT22;16450;50.288;10.966;2023-11-21T09:46:29;9.30;99.90
29501;DHT22;16450;50.288;10.966;2023-11-21T09:49:33;9.50;99.90
29501;DHT22;16450;50.288;10.966;2023-11-21T09:53:11;9.60;99.90
29501;DHT22;16450;50.288;10.966;2023-11-21T09:56:16;9.70;99.90
29501;DHT22;16450;50.288;10.966;2023-11-21T09:59:30;9.70;99.90
29501;DHT22;16450;50.288;10.966;2023-11-21T10:02:34;9.70;99.90
29501;DHT22;16450;50.288;10.966;2023-11-21T10:05:38;9.70;99.90
29501;DHT22;16450;50.288;10.966;2023-11-21T10:08:41;9.70;99.90
29501;DHT22;16450;50.288;10.966;2023-11-21T10:11:55;9.60;99.90
29501;DHT22;16450;50.288;10.966;2023-11-21T10:14:59;9.60;99.90
29501;DHT22;16450;50.288;10.966;2023-11-21T10:18:03;9.50;99.90
29501;DHT22;16450;50.288;10.966;2023-11-21T10:21:06;9.40;99.90
29501;DHT22;16450;50.288;10.966;2023-11-21T10:24:08;9.40;99.90
29501;DHT22;16450;50.288;10.966;2023-11-21T10:27:12;9.30;99.90
29501;DHT22;16450;50.288;10.966;2023-11-21T10:30:14;9.30;99.90
29501;DHT22;16450;50.288;10.966;2023-11-21T10:33:27;9.20;99.90
29501;DHT22;16450;50.288;10.966;2023-11-21T10:36:31;9.20;99.90
29501;DHT22;16450;50.288;10.966;2023-11-21T10:39:33;9.20;99.90
29501;DHT22;16450;50.288;10.966;2023-11-21T10:42:35;9.20;99.90
29501;DHT22;16450;50.288;10.966;2023-11-21T10:45:38;9.20;99.90
29501;DHT22;16450;50.288;10.966;2023-11-21T10:48:44;9.30;99.90
29501;DHT22;16450;50.288;10.966;2023-11-21T10:51:46;9.30;99.90
29501;DHT22;16450;50.288;10.966;2023-11-21T10:54:50;9.40;99.90
29501;DHT22;16450;50.288;10.966;2023-11-21T10:57:53;9.50;99.90
29501;DHT22;16450;50.288;10.966;2023-11-21T11:00:56;9.60;99.90
29501;DHT22;16450;50.288;10.966;2023-11-21T11:03:59;9.60;99.90
29501;DHT22;16450;50.288;10.966;2023-11-21T11:07:03;9.70;99.90
29501;DHT22;16450;50.288;10.966;2023-11-21T11:10:08;9.70;99.90
29501;DHT22;16450;50.288;10.966;2023-11-21T11:13:16;9.80;99.90
29501;DHT22;16450;50.288;10.966;2023-11-21T11:16:18;9.80;99.90
29501;DHT22;16450;50.288;10.966;2023-11-21T11:19:21;9.80;99.90
29501;DHT22;16450;50.288;10.966;2023-11-21T11:22:37;9.80;99.90
29501;DHT22;16450;50.288;10.966;2023-11-21T11:25:53;9.90;99.90
29501;DHT22;16450;50.288;10.966;2023-11-21T11:29:33;9.90;99.90
29501;DHT22;16450;50.288;10.966;2023-11-21T11:39:42;9.80;99.90
29501;DHT22;16450;50.288;10.966;2023-11-21T11:43:06;9.80;99.90
29501;DHT22;16450;50.288;10.966;2023-11-21T11:46:09;9.80;99.90
29501;DHT22;16450;50.288;10.966;2023-11-21T11:49:24;9.80;99.90
29501;DHT22;16450;50.288;10.966;2023-11-21T11:55:38;9.70;99.90
29501;DHT22;16450;50.288;10.966;2023-11-21T11:58:41;9.70;99.90
29501;DHT22;16450;50.288;10.966;2023-11-21T12:01:45;9.60;99.90
29501;DHT22;16450;50.288;10.966;2023-11-21T12:04:48;9.60;99.90
29501;DHT22;16450;50.288;10.966;2023-11-21T12:07:55;9.60;99.90
29501;DHT22;16450;50.288;10.966;2023-11-21T12:10:58;9.60;99.90
29501;DHT22;16450;50.288;10.966;2023-11-21T12:14:01;9.50;99.90
29501;DHT22;16450;50.288;10.966;2023-11-21T12:17:03;9.50;99.90
29501;DHT22;16450;50.288;10.966;2023-11-21T12:20:06;9.50;99.90
29501;DHT22;16450;50.288;10.966;2023-11-21T12:23:16;9.50;99.90
29501;DHT22;16450;50.288;10.966;2023-11-21T12:26:18;9.60;99.90
29501;DHT22;16450;50.288;10.966;2023-11-21T12:29:20;9.50;99.90
29501;DHT22;16450;50.288;10.966;2023-11-21T12:32:22;9.50;99.90
29501;DHT22;16450;50.288;10.966;2023-11-21T12:35:26;9.50;99.90
29501;DHT22;16450;50.288;10.966;2023-11-21T12:38:34;9.50;99.90
29501;DHT22;16450;50.288;10.966;2023-11-21T12:41:39;9.40;99.90
29501;DHT22;16450;50.288;10.966;2023-11-21T12:44:42;9.40;99.90
29501;DHT22;16450;50.288;10.966;2023-11-21T12:48:01;9.30;99.90
29501;DHT22;16450;50.288;10.966;2023-11-21T12:51:06;9.30;99.90
29501;DHT22;16450;50.288;10.966;2023-11-21T12:54:08;9.20;99.90
29501;DHT22;16450;50.288;10.966;2023-11-21T12:57:11;9.20;99.90
29501;DHT22;16450;50.288;10.966;2023-11-21T13:00:13;9.20;99.90
29501;DHT22;16450;50.288;10.966;2023-11-21T13:03:25;9.20;99.90
29501;DHT22;16450;50.288;10.966;2023-11-21T13:06:28;9.20;99.90
29501;DHT22;16450;50.288;10.966;2023-11-21T13:09:35;9.20;99.90
29501;DHT22;16450;50.288;10.966;2023-11-21T13:12:37;9.20;99.90
29501;DHT22;16450;50.288;10.966;2023-11-21T13:15:40;9.20;99.90
29501;DHT22;16450;50.288;10.966;2023-11-21T13:18:44;9.20;99.90
29501;DHT22;16450;50.288;10.966;2023-11-21T13:21:46;9.20;99.90
29501;DHT22;16450;50.288;10.966;2023-11-21T13:24:48;9.20;99.90
29501;DHT22;16450;50.288;10.966;2023-11-21T13:27:50;9.20;99.90
29501;DHT22;16450;50.288;10.966;2023-11-21T13:30:52;9.30;99.90
29501;DHT22;16450;50.288;10.966;2023-11-21T13:33:54;9.20;99.90
29501;DHT22;16450;50.288;10.966;2023-11-21T13:36:58;9.20;99.90
29501;DHT22;16450;50.288;10.966;2023-11-21T13:40:02;9.20;99.90
29501;DHT22;16450;50.288;10.966;2023-11-21T13:43:12;9.20;99.90
29501;DHT22;16450;50.288;10.966;2023-11-21T13:46:16;9.20;99.90
29501;DHT22;16450;50.288;10.966;2023-11-21T13:49:24;9.20;99.90
29501;DHT22;16450;50.288;10.966;2023-11-21T13:52:27;9.10;99.90
29501;DHT22;16450;50.288;10.966;2023-11-21T13:55:31;9.10;99.90
29501;DHT22;16450;50.288;10.966;2023-11-21T13:58:33;9.10;99.90
29501;DHT22;16450;50.288;10.966;2023-11-21T14:01:55;9.00;99.90
29501;DHT22;16450;50.288;10.966;2023-11-21T14:04:59;9.00;99.90
29501;DHT22;16450;50.288;10.966;2023-11-21T14:08:04;9.00;99.90
29501;DHT22;16450;50.288;10.966;2023-11-21T14:11:07;9.00;99.90
29501;DHT22;16450;50.288;10.966;2023-11-21T14:14:09;9.00;99.90
29501;DHT22;16450;50.288;10.966;2023-11-21T14:17:11;9.00;99.90
29501;DHT22;16450;50.288;10.966;2023-11-21T14:20:13;9.00;99.90
29501;DHT22;16450;50.288;10.966;2023-11-21T14:23:19;9.00;99.90
29501;DHT22;16450;50.288;10.966;2023-11-21T14:26:23;9.00;99.90
29501;DHT22;16450;50.288;10.966;2023-11-21T14:29:26;9.00;99.90
29501;DHT22;16450;50.288;10.966;2023-11-21T14:32:29;9.00;99.90
29501;DHT22;16450;50.288;10.966;2023-11-21T14:35:32;9.00;99.90
29501;DHT22;16450;50.288;10.966;2023-11-21T14:38:34;8.90;99.90
29501;DHT22;16450;50.288;10.966;2023-11-21T14:41:36;8.90;99.90
29501;DHT22;16450;50.288;10.966;2023-11-21T14:44:40;8.80;99.90
29501;DHT22;16450;50.288;10.966;2023-11-21T14:47:43;8.80;99.90
29501;DHT22;16450;50.288;10.966;2023-11-21T14:50:50;8.70;99.90
29501;DHT22;16450;50.288;10.966;2023-11-21T14:54:12;8.70;99.90
29501;DHT22;16450;50.288;10.966;2023-11-21T14:57:14;8.70;99.90
29501;DHT22;16450;50.288;10.966;2023-11-21T15:00:20;8.60;99.90
29501;DHT22;16450;50.288;10.966;2023-11-21T15:03:37;8.60;99.90
29501;DHT22;16450;50.288;10.966;2023-11-21T15:06:45;8.60;99.90
29501;DHT22;16450;50.288;10.966;2023-11-21T15:09:48;8.50;99.90
29501;DHT22;16450;50.288;10.966;2023-11-21T15:12:52;8.50;99.90
29501;DHT22;16450;50.288;10.966;2023-11-21T15:15:53;8.50;99.90
29501;DHT22;16450;50.288;10.966;2023-11-21T15:18:56;8.50;99.90
29501;DHT22;16450;50.288;10.966;2023-11-21T15:21:58;8.50;99.90
29501;DHT22;16450;50.288;10.966;2023-11-21T15:25:00;8.50;99.90
29501;DHT22;16450;50.288;10.966;2023-11-21T15:28:09;8.50;99.90
29501;DHT22;16450;50.288;10.966;2023-11-21T15:31:11;8.50;99.90
29501;DHT22;16450;50.288;10.966;2023-11-21T15:34:13;8.50;99.90
29501;DHT22;16450;50.288;10.966;2023-11-21T15:37:15;8.50;99.90
29501;DHT22;16450;50.288;10.966;2023-11-21T15:40:17;8.50;99.90
29501;DHT22;16450;50.288;10.966;2023-11-21T15:43:20;8.50;99.90
29501;DHT22;16450;50.288;10.966;2023-11-21T15:46:22;8.50;99.90
29501;DHT22;16450;50.288;10.966;2023-11-21T15:49:25;8.50;99.90
29501;DHT22;16450;50.288;10.966;2023-11-21T15:52:28;8.50;99.90
29501;DHT22;16450;50.288;10.966;2023-11-21T15:55:30;8.40;99.90
29501;DHT22;16450;50.288;10.966;2023-11-21T15:58:33;8.50;99.90
29501;DHT22;16450;50.288;10.966;2023-11-21T16:01:35;8.40;99.90
29501;DHT22;16450;50.288;10.966;2023-11-21T16:04:43;8.40;99.90
29501;DHT22;16450;50.288;10.966;2023-11-21T16:07:45;8.40;99.90
29501;DHT22;16450;50.288;10.966;2023-11-21T16:10:47;8.30;99.90
29501;DHT22;16450;50.288;10.966;2023-11-21T16:13:50;8.30;99.90
29501;DHT22;16450;50.288;10.966;2023-11-21T16:16:52;8.30;99.90
29501;DHT22;16450;50.288;10.966;2023-11-21T16:19:54;8.20;99.90
29501;DHT22;16450;50.288;10.966;2023-11-21T16:22:58;8.20;99.90
29501;DHT22;16450;50.288;10.966;2023-11-21T16:26:00;8.20;99.90
29501;DHT22;16450;50.288;10.966;2023-11-21T16:29:02;8.10;99.90
29501;DHT22;16450;50.288;10.966;2023-11-21T16:32:05;8.10;99.90
29501;DHT22;16450;50.288;10.966;2023-11-21T16:35:10;8.10;99.90
29501;DHT22;16450;50.288;10.966;2023-11-21T16:38:14;8.10;99.90
29501;DHT22;16450;50.288;10.966;2023-11-21T16:41:17;8.10;99.90
29501;DHT22;16450;50.288;10.966;2023-11-21T16:44:20;8.00;99.90
29501;DHT22;16450;50.288;10.966;2023-11-21T16:47:22;8.00;99.90
29501;DHT22;16450;50.288;10.966;2023-11-21T16:50:25;7.90;99.90
29501;DHT22;16450;50.288;10.966;2023-11-21T16:53:28;7.80;99.90
29501;DHT22;16450;50.288;10.966;2023-11-21T16:56:30;7.70;99.90
29501;DHT22;16450;50.288;10.966;2023-11-21T16:59:31;7.60;99.90
29501;DHT22;16450;50.288;10.966;2023-11-21T17:02:33;7.60;99.90
29501;DHT22;16450;50.288;10.966;2023-11-21T17:05:35;7.50;99.90
29501;DHT22;16450;50.288;10.966;2023-11-21T17:08:39;7.50;99.90
29501;DHT22;16450;50.288;10.966;2023-11-21T17:11:41;7.40;99.90
29501;DHT22;16450;50.288;10.966;2023-11-21T17:14:44;7.40;99.90
29501;DHT22;16450;50.288;10.966;2023-11-21T17:17:48;7.30;99.90
29501;DHT22;16450;50.288;10.966;2023-11-21T17:20:50;7.30;99.90
29501;DHT22;16450;50.288;10.966;2023-11-21T17:23:52;7.20;99.90
29501;DHT22;16450;50.288;10.966;2023-11-21T17:26:54;7.10;99.90
29501;DHT22;16450;50.288;10.966;2023-11-21T17:29:56;7.10;99.90
29501;DHT22;16450;50.288;10.966;2023-11-21T17:32:57;7.00;99.90
29501;DHT22;16450;50.288;10.966;2023-11-21T17:36:00;7.00;99.90
29501;DHT22;16450;50.288;10.966;2023-11-21T17:39:02;6.90;99.90
29501;DHT22;16450;50.288;10.966;2023-11-21T17:42:04;6.90;99.90
29501;DHT22;16450;50.288;10.966;2023-11-21T17:45:08;6.90;99.90
29501;DHT22;16450;50.288;10.966;2023-11-21T17:48:11;6.90;99.90
29501;DHT22;16450;50.288;10.966;2023-11-21T17:51:12;6.90;99.90
29501;DHT22;16450;50.288;10.966;2023-11-21T17:54:14;6.80;99.90
29501;DHT22;16450;50.288;10.966;2023-11-21T17:57:16;6.80;99.90
29501;DHT22;16450;50.288;10.966;2023-11-21T18:00:18;6.70;99.90
29501;DHT22;16450;50.288;10.966;2023-11-21T18:03:21;6.70;99.90
29501;DHT22;16450;50.288;10.966;2023-11-21T18:06:23;6.60;99.90
29501;DHT22;16450;50.288;10.966;2023-11-21T18:09:24;6.70;99.90
29501;DHT22;16450;50.288;10.966;2023-11-21T18:12:26;6.60;99.90
29501;DHT22;16450;50.288;10.966;2023-11-21T18:15:28;6.60;99.90
29501;DHT22;16450;50.288;10.966;2023-11-21T18:18:30;6.70;99.90
29501;DHT22;16450;50.288;10.966;2023-11-21T18:21:32;6.60;99.90
29501;DHT22;16450;50.288;10.966;2023-11-21T18:24:33;6.60;99.90
29501;DHT22;16450;50.288;10.966;2023-11-21T18:27:35;6.50;99.90
29501;DHT22;16450;50.288;10.966;2023-11-21T18:30:37;6.50;99.90
29501;DHT22;16450;50.288;10.966;2023-11-21T18:33:39;6.50;99.90
29501;DHT22;16450;50.288;10.966;2023-11-21T18:36:43;6.40;99.90
29501;DHT22;16450;50.288;10.966;2023-11-21T18:39:46;6.40;99.90
29501;DHT22;16450;50.288;10.966;2023-11-21T18:42:47;6.40;99.90
29501;DHT22;16450;50.288;10.966;2023-11-21T18:45:50;6.40;99.90
29501;DHT22;16450;50.288;10.966;2023-11-21T18:48:52;6.30;99.90
29501;DHT22;16450;50.288;10.966;2023-11-21T18:51:54;6.30;99.90
29501;DHT22;16450;50.288;10.966;2023-11-21T18:54:57;6.30;99.90
29501;DHT22;16450;50.288;10.966;2023-11-21T18:58:00;6.30;99.90
29501;DHT22;16450;50.288;10.966;2023-11-21T19:01:02;6.30;99.90
29501;DHT22;16450;50.288;10.966;2023-11-21T19:04:04;6.20;99.90
29501;DHT22;16450;50.288;10.966;2023-11-21T19:07:06;6.20;99.90
29501;DHT22;16450;50.288;10.966;2023-11-21T19:10:08;6.20;99.90
29501;DHT22;16450;50.288;10.966;2023-11-21T19:13:13;6.10;99.90
29501;DHT22;16450;50.288;10.966;2023-11-21T19:16:15;6.10;99.90
29501;DHT22;16450;50.288;10.966;2023-11-21T19:19:17;6.10;99.90
29501;DHT22;16450;50.288;10.966;2023-11-21T19:22:19;6.10;99.90
29501;DHT22;16450;50.288;10.966;2023-11-21T19:25:21;6.10;99.90
29501;DHT22;16450;50.288;10.966;2023-11-21T19:28:24;6.10;99.90